Time;durP1;ratioP1;P1;durP2;ratioP2;P2;SDS_P1;SDS_P2;PMS_P1;PMS_P2;Temp;Humidity;BMP_temperature;BMP_pressure;BME280_temperature;BME280_humidity;BME280_pressure;Samples;Min_cycle;Max_cycle;Signal;HPM_P1;HPM_P2
2022/11/14 00:03:39;;;;;;;17.98;10.15;;;;;;;5.51;94.98;100546.16;8321835;28;20041;-53
2022/11/14 00:07:59;;;;;;;16.80;9.60;;;;;;;5.51;95.12;100550.66;8287143;28;20503;-50
2022/11/14 00:12:20;;;;;;;20.67;10.52;;;;;;;5.43;95.35;100531.59;8316342;28;20120;-54
2022/11/14 00:16:40;;;;;;;15.70;9.43;;;;;;;5.45;95.44;100526.97;8338667;28;20534;-51
2022/11/14 00:21:00;;;;;;;15.50;9.50;;;;;;;5.42;95.61;100532.53;8337273;28;20261;-51
2022/11/14 00:25:21;;;;;;;13.10;9.15;;;;;;;5.46;95.77;100529.53;8339932;28;20033;-50
2022/11/14 00:29:41;;;;;;;10.45;7.57;;;;;;;5.51;96.10;100518.50;8340839;28;20107;-50
2022/11/14 00:34:02;;;;;;;17.10;9.63;;;;;;;5.48;95.67;100519.56;8339477;28;20033;-50
2022/11/14 00:38:22;;;;;;;14.10;8.90;;;;;;;5.58;95.12;100503.72;8343942;28;20445;-54
2022/11/14 00:42:43;;;;;;;13.73;9.30;;;;;;;5.39;95.40;100508.63;8338241;28;20379;-50
2022/11/14 00:47:04;;;;;;;17.17;8.82;;;;;;;5.14;96.46;100503.28;8353735;28;20529;-51
2022/11/14 00:51:24;;;;;;;15.65;9.63;;;;;;;5.11;96.79;100503.50;8388894;28;20502;-53
2022/11/14 00:55:45;;;;;;;18.40;10.38;;;;;;;4.58;98.02;100503.63;8387893;28;20373;-51
2022/11/14 01:00:07;;;;;;;17.50;10.25;;;;;;;4.30;98.42;100501.09;8345911;28;20041;-51
2022/11/14 01:04:28;;;;;;;20.90;10.18;;;;;;;4.33;100.00;100498.22;8334710;28;20411;-50
2022/11/14 01:08:49;;;;;;;15.75;9.98;;;;;;;4.30;98.81;100493.91;8324461;28;20072;-50
2022/11/14 01:13:10;;;;;;;15.30;9.80;;;;;;;4.46;99.90;100501.78;8325887;28;20036;-50
2022/11/14 01:17:31;;;;;;;15.55;10.00;;;;;;;4.39;99.09;100489.78;8338900;28;20568;-51
2022/11/14 01:21:51;;;;;;;12.55;8.73;;;;;;;4.30;99.72;100493.91;8336609;28;20112;-53
2022/11/14 01:26:13;;;;;;;17.25;9.85;;;;;;;4.20;100.00;100479.44;8354977;28;20166;-50
2022/11/14 01:30:34;;;;;;;15.98;9.35;;;;;;;4.23;100.00;100481.91;8336992;28;20494;-51
2022/11/14 01:34:54;;;;;;;14.38;9.90;;;;;;;4.31;99.46;100473.38;8337751;28;20092;-50
2022/11/14 01:39:15;;;;;;;15.80;9.55;;;;;;;4.36;98.68;100476.59;8336493;28;20037;-51
2022/11/14 01:43:37;;;;;;;13.70;8.98;;;;;;;4.26;97.82;100472.81;8338016;28;20696;-51
2022/11/14 01:47:58;;;;;;;13.40;9.07;;;;;;;4.14;98.24;100468.31;8337709;28;20072;-51
2022/11/14 01:52:31;;;;;;;17.98;8.75;;;;;;;4.31;99.24;100462.66;8335709;28;20045;-50
2022/11/14 01:56:56;;;;;;;15.00;8.67;;;;;;;4.37;98.55;100460.44;8337905;28;20525;-52
2022/11/14 02:01:17;;;;;;;14.25;8.85;;;;;;;4.48;98.17;100455.22;8305314;28;20095;-50
2022/11/14 02:05:38;;;;;;;13.10;8.57;;;;;;;4.32;98.00;100459.88;8328714;28;20041;-51
2022/11/14 02:10:03;;;;;;;14.85;8.98;;;;;;;3.70;98.76;100450.66;8321056;28;20052;-51
2022/11/14 02:14:26;;;;;;;18.08;10.15;;;;;;;3.65;100.00;100447.44;8302565;28;20482;-51
2022/11/14 02:18:46;;;;;;;13.80;10.23;;;;;;;3.77;100.00;100446.63;8312438;28;20107;-50
2022/11/14 02:23:07;;;;;;;14.65;9.90;;;;;;;3.85;100.00;100438.94;8347638;28;20065;-50
2022/11/14 02:27:29;;;;;;;14.05;9.63;;;;;;;3.53;99.36;100436.66;8351545;28;20052;-48
2022/11/14 02:31:49;;;;;;;14.93;8.95;;;;;;;3.58;100.00;100438.09;8350425;28;20044;-50
2022/11/14 02:36:10;;;;;;;14.75;9.55;;;;;;;3.69;100.00;100438.25;8351731;28;20041;-49
2022/11/14 02:40:30;;;;;;;15.70;10.15;;;;;;;3.76;100.00;100444.91;8354448;28;20086;-50
2022/11/14 02:44:51;;;;;;;14.38;9.15;;;;;;;3.65;100.00;100439.41;8358163;28;20040;-52
2022/11/14 02:49:11;;;;;;;13.35;9.25;;;;;;;3.77;100.00;100427.91;8343503;28;20033;-49
2022/11/14 02:53:32;;;;;;;13.55;8.60;;;;;;;3.66;100.00;100427.75;8341739;28;20525;-50
2022/11/14 02:57:52;;;;;;;14.20;8.98;;;;;;;3.74;100.00;100420.09;8340049;28;20045;-52
2022/11/14 03:02:15;;;;;;;15.90;9.85;;;;;;;3.68;100.00;100424.97;8342900;28;20039;-50
2022/11/14 03:06:35;;;;;;;12.70;8.07;;;;;;;3.81;100.00;100413.38;8330406;28;20406;-50
2022/11/14 03:11:02;;;;;;;15.18;8.52;;;;;;;3.96;100.00;100409.72;8329705;28;20512;-50
2022/11/14 03:15:23;;;;;;;14.68;8.85;;;;;;;3.74;100.00;100396.03;8358319;28;20060;-50
2022/11/14 03:19:44;;;;;;;14.45;8.32;;;;;;;3.53;100.00;100400.09;8328400;28;20041;-49
2022/11/14 03:24:04;;;;;;;13.00;8.23;;;;;;;3.32;100.00;100389.94;8303763;28;20042;-49
2022/11/14 03:28:25;;;;;;;13.40;7.75;;;;;;;3.07;100.00;100396.00;8320550;28;20506;-49
2022/11/14 03:32:45;;;;;;;12.02;8.50;;;;;;;3.28;100.00;100386.63;8358337;28;20143;-49
2022/11/14 03:37:06;;;;;;;12.85;8.50;;;;;;;3.43;100.00;100388.31;8340890;28;20037;-53
2022/11/14 03:41:27;;;;;;;10.93;7.47;;;;;;;3.57;100.00;100392.75;8340151;28;20037;-49
2022/11/14 03:45:48;;;;;;;10.30;7.03;;;;;;;3.76;100.00;100383.41;8340025;28;20498;-51
2022/11/14 03:50:08;;;;;;;14.23;7.60;;;;;;;3.74;100.00;100381.81;8337677;28;20032;-54
2022/11/14 03:54:29;;;;;;;13.63;7.45;;;;;;;3.48;100.00;100372.81;8340623;28;20041;-51
2022/11/14 03:58:50;;;;;;;9.65;7.55;;;;;;;3.26;100.00;100369.81;8340105;28;20045;-51
2022/11/14 04:03:10;;;;;;;13.80;8.52;;;;;;;3.27;100.00;100365.34;8340611;28;20038;-51
2022/11/14 04:07:30;;;;;;;10.20;7.22;;;;;;;3.04;100.00;100364.13;8324046;28;20038;-50
2022/11/14 04:11:51;;;;;;;11.25;7.47;;;;;;;3.22;100.00;100362.97;8335873;28;20536;-50
2022/11/14 04:16:11;;;;;;;13.63;7.72;;;;;;;3.20;100.00;100354.19;8355357;28;20449;-53
2022/11/14 04:20:32;;;;;;;14.63;8.93;;;;;;;3.17;100.00;100351.72;8357197;28;20033;-50
2022/11/14 04:24:52;;;;;;;12.02;7.97;;;;;;;3.06;100.00;100356.91;8340227;28;20049;-50
2022/11/14 04:29:13;;;;;;;12.48;8.23;;;;;;;3.07;100.00;100353.28;8340749;28;20068;-52
2022/11/14 04:33:33;;;;;;;15.00;8.35;;;;;;;3.22;100.00;100349.63;8340057;28;20047;-50
2022/11/14 04:37:53;;;;;;;16.02;8.57;;;;;;;3.52;100.00;100350.31;8322754;28;20044;-51
2022/11/14 04:42:14;;;;;;;12.65;8.75;;;;;;;3.94;100.00;100352.78;8353928;28;20040;-53
2022/11/14 04:46:34;;;;;;;11.15;7.75;;;;;;;4.08;100.00;100351.84;8342791;28;20043;-50
2022/11/14 04:50:55;;;;;;;11.75;7.65;;;;;;;4.18;100.00;100360.13;8356394;28;20459;-50
2022/11/14 04:55:15;;;;;;;12.65;8.05;;;;;;;4.22;100.00;100350.91;8351839;28;20048;-53
2022/11/14 04:59:36;;;;;;;12.43;7.55;;;;;;;3.98;100.00;100351.63;8331246;28;20033;-50
2022/11/14 05:03:56;;;;;;;12.55;7.95;;;;;;;3.61;100.00;100348.84;8338729;28;20037;-50
2022/11/14 05:08:17;;;;;;;10.18;7.20;;;;;;;3.41;100.00;100347.47;8322015;28;20530;-50
2022/11/14 05:12:37;;;;;;;13.43;7.40;;;;;;;3.35;100.00;100347.88;8325038;28;20037;-52
2022/11/14 05:17:03;;;;;;;13.63;7.75;;;;;;;3.25;100.00;100345.88;8337459;28;20133;-51
2022/11/14 05:21:23;;;;;;;11.82;7.80;;;;;;;3.27;100.00;100338.63;8339520;28;20033;-54
2022/11/14 05:25:44;;;;;;;14.90;8.95;;;;;;;3.43;100.00;100334.88;8336939;28;20490;-51
2022/11/14 05:30:05;;;;;;;13.02;8.25;;;;;;;3.42;100.00;100322.44;8336615;28;20495;-54
2022/11/14 05:34:26;;;;;;;14.95;8.70;;;;;;;3.53;100.00;100322.63;8337805;28;20037;-52
2022/11/14 05:38:46;;;;;;;15.90;9.00;;;;;;;3.53;100.00;100319.94;8337440;28;20052;-53
2022/11/14 05:43:07;;;;;;;14.18;8.43;;;;;;;3.50;100.00;100319.28;8335441;28;20142;-52
2022/11/14 05:47:27;;;;;;;16.20;9.10;;;;;;;3.40;100.00;100320.84;8330629;28;20037;-50
2022/11/14 05:51:48;;;;;;;12.40;8.52;;;;;;;3.49;100.00;100318.44;8334117;28;20052;-51
2022/11/14 05:56:11;;;;;;;15.15;8.75;;;;;;;3.84;100.00;100294.69;8331302;28;20056;-52
2022/11/14 06:00:31;;;;;;;18.73;10.73;;;;;;;4.16;100.00;100292.47;8333579;28;20513;-50
2022/11/14 06:04:51;;;;;;;19.63;11.23;;;;;;;4.33;100.00;100289.50;8326283;28;20099;-53
2022/11/14 06:09:12;;;;;;;20.05;11.70;;;;;;;4.47;100.00;100292.06;8317663;28;20030;-50
2022/11/14 06:13:33;;;;;;;22.33;11.63;;;;;;;4.71;100.00;100307.25;8318009;28;20518;-51
2022/11/14 06:17:54;;;;;;;19.42;11.38;;;;;;;4.83;100.00;100302.84;8313024;28;20060;-52
2022/11/14 06:22:14;;;;;;;19.52;10.90;;;;;;;4.77;100.00;100292.56;8336558;28;20044;-53
2022/11/14 06:26:34;;;;;;;20.63;12.75;;;;;;;4.90;100.00;100288.03;8334918;28;20571;-54
2022/11/14 06:30:57;;;;;;;21.67;12.32;;;;;;;5.01;100.00;100293.47;8334464;28;20044;-51
2022/11/14 06:35:18;;;;;;;27.25;14.63;;;;;;;5.20;100.00;100296.53;8299339;28;20042;-53
2022/11/14 06:39:38;;;;;;;27.42;14.13;;;;;;;5.20;100.00;100293.84;8298030;28;20045;-53
2022/11/14 06:43:59;;;;;;;30.85;16.38;;;;;;;5.25;100.00;100291.69;8307324;28;20041;-52
2022/11/14 06:48:19;;;;;;;39.85;17.73;;;;;;;5.47;100.00;100286.47;8310531;28;20057;-52
2022/11/14 06:52:40;;;;;;;40.50;20.40;;;;;;;5.58;100.00;100294.56;8328638;28;20472;-51
2022/11/14 06:57:00;;;;;;;45.58;22.00;;;;;;;5.72;100.00;100297.06;8296389;28;20052;-53
2022/11/14 07:01:24;;;;;;;43.90;21.73;;;;;;;5.84;100.00;100296.16;8336110;28;20091;-52
2022/11/14 07:05:45;;;;;;;51.92;23.83;;;;;;;5.98;100.00;100294.13;8352417;28;20093;-52
2022/11/14 07:10:06;;;;;;;56.83;24.90;;;;;;;6.09;100.00;100290.63;8342403;28;20413;-53
2022/11/14 07:14:27;;;;;;;60.33;26.83;;;;;;;6.26;100.00;100298.25;8325761;28;20042;-54
2022/11/14 07:18:48;;;;;;;48.97;23.48;;;;;;;6.33;100.00;100294.09;8320742;28;20060;-54
2022/11/14 07:23:08;;;;;;;60.28;26.05;;;;;;;6.27;100.00;100301.75;8317088;28;20042;-54
2022/11/14 07:27:29;;;;;;;56.85;26.27;;;;;;;6.31;100.00;100301.41;8307765;28;20095;-52
2022/11/14 07:31:49;;;;;;;66.47;29.98;;;;;;;6.40;100.00;100295.31;8326135;28;20049;-54
2022/11/14 07:36:10;;;;;;;64.07;28.17;;;;;;;6.57;100.00;100302.06;8325838;28;20034;-53
2022/11/14 07:40:31;;;;;;;63.63;28.85;;;;;;;6.79;100.00;100308.31;8332974;28;20029;-54
2022/11/14 07:44:51;;;;;;;60.58;28.02;;;;;;;6.98;100.00;100303.16;8333727;28;20538;-53
2022/11/14 07:49:12;;;;;;;57.60;27.55;;;;;;;7.28;100.00;100306.06;8329350;28;20490;-54
2022/11/14 07:53:33;;;;;;;61.03;27.23;;;;;;;7.39;100.00;100303.38;8340087;28;20470;-51
2022/11/14 07:57:54;;;;;;;61.08;28.13;;;;;;;7.40;100.00;100288.94;8330307;28;20045;-52
2022/11/14 08:02:14;;;;;;;61.35;28.67;;;;;;;7.53;100.00;100295.00;8331764;28;20041;-51
2022/11/14 08:06:35;;;;;;;61.83;27.15;;;;;;;7.63;100.00;100295.09;8331117;28;20514;-52
2022/11/14 08:10:57;;;;;;;60.45;28.10;;;;;;;7.66;100.00;100295.69;8345526;28;20033;-53
2022/11/14 08:15:17;;;;;;;61.92;28.73;;;;;;;7.73;100.00;100286.13;8339690;28;20045;-50
2022/11/14 08:19:38;;;;;;;63.13;27.50;;;;;;;7.82;100.00;100279.13;8322378;28;20503;-50
2022/11/14 08:23:58;;;;;;;87.47;35.72;;;;;;;7.88;100.00;100278.59;8335026;28;20037;-54
2022/11/14 08:28:18;;;;;;;57.75;26.55;;;;;;;7.93;100.00;100271.84;8336550;28;20084;-50
2022/11/14 08:32:39;;;;;;;55.75;24.65;;;;;;;8.02;100.00;100263.00;8334271;28;20054;-53
2022/11/14 08:37:00;;;;;;;50.13;23.90;;;;;;;8.08;100.00;100257.09;8333275;28;20065;-53
2022/11/14 08:41:20;;;;;;;59.95;26.60;;;;;;;8.08;100.00;100259.78;8339236;28;20125;-53
2022/11/14 08:45:41;;;;;;;56.97;25.25;;;;;;;8.11;100.00;100244.34;8345730;28;20082;-53
2022/11/14 08:50:01;;;;;;;55.80;25.13;;;;;;;8.12;100.00;100237.97;8336089;28;20131;-52
2022/11/14 08:54:22;;;;;;;48.83;23.30;;;;;;;8.20;100.00;100233.63;8347696;28;20029;-50
2022/11/14 08:58:42;;;;;;;52.90;23.83;;;;;;;8.21;100.00;100237.19;8334183;28;20499;-53
2022/11/14 09:03:08;;;;;;;53.47;26.25;;;;;;;8.24;100.00;100242.34;8324646;28;20049;-52
2022/11/14 09:07:28;;;;;;;57.10;25.92;;;;;;;8.27;100.00;100248.31;8339440;28;20034;-50
2022/11/14 09:11:49;;;;;;;56.15;25.02;;;;;;;8.25;100.00;100247.59;8327226;28;20459;-52
2022/11/14 09:16:09;;;;;;;61.70;25.30;;;;;;;8.29;100.00;100256.28;8330519;28;20521;-53
2022/11/14 09:20:30;;;;;;;55.28;25.02;;;;;;;8.26;100.00;100256.53;8329701;28;20621;-52
2022/11/14 09:24:51;;;;;;;51.03;23.75;;;;;;;8.36;100.00;100260.13;8344889;28;20095;-50
2022/11/14 09:29:12;;;;;;;51.03;24.08;;;;;;;8.27;100.00;100269.00;8319846;28;20034;-52
2022/11/14 09:33:33;;;;;;;48.72;22.23;;;;;;;8.33;100.00;100257.69;8321360;28;20117;-54
2022/11/14 09:38:04;;;;;;;45.03;21.38;;;;;;;8.31;100.00;100260.53;8318448;28;20511;-52
2022/11/14 09:42:53;;;;;;;38.90;17.48;;;;;;;8.37;100.00;100259.13;8318521;28;20037;-51
2022/11/14 09:47:25;;;;;;;38.17;17.15;;;;;;;8.57;100.00;100244.78;8322103;28;20053;-51
2022/11/14 09:51:52;;;;;;;32.47;14.57;;;;;;;8.76;99.25;100244.88;8332867;28;20093;-55
2022/11/14 09:56:19;;;;;;;26.48;14.02;;;;;;;8.85;98.10;100252.16;8321259;28;20095;-53
2022/11/14 10:01:04;;;;;;;27.20;13.65;;;;;;;8.93;97.27;100246.91;8332918;28;20411;-53
2022/11/14 10:05:57;;;;;;;25.75;12.73;;;;;;;9.03;96.96;100242.41;8317199;28;20479;-54
2022/11/14 10:10:41;;;;;;;25.23;14.40;;;;;;;9.07;97.91;100249.22;8308017;28;20124;-51
2022/11/14 10:15:12;;;;;;;33.42;16.30;;;;;;;9.06;100.00;100229.50;8305438;28;20033;-54
2022/11/14 10:20:01;;;;;;;33.15;16.23;;;;;;;8.99;100.00;100232.88;8305346;28;20051;-54
2022/11/14 10:25:01;;;;;;;29.58;13.57;;;;;;;9.31;99.54;100230.84;8337359;28;20111;-53
2022/11/14 10:29:48;;;;;;;27.45;13.10;;;;;;;9.45;98.30;100230.41;8333249;28;20132;-52
2022/11/14 10:34:17;;;;;;;22.23;12.52;;;;;;;9.71;96.70;100220.78;8347123;28;20115;-52
2022/11/14 10:38:47;;;;;;;24.65;12.57;;;;;;;10.04;94.92;100220.34;8329943;28;20511;-53
2022/11/14 10:43:36;;;;;;;20.15;10.98;;;;;;;10.83;92.53;100198.19;8345091;28;20029;-54
2022/11/14 10:48:02;;;;;;;20.00;10.00;;;;;;;11.55;88.33;100217.94;8326297;28;20038;-52
2022/11/14 10:52:37;;;;;;;18.52;9.77;;;;;;;11.34;85.79;100230.91;8321597;28;20036;-54
2022/11/14 10:56:58;;;;;;;15.68;9.35;;;;;;;11.01;88.40;100223.41;8319202;28;20071;-54
2022/11/14 11:06:04;;;;;;;17.90;9.77;;;;;;;10.80;90.74;100214.69;8326451;27;20458;-51
2022/11/14 11:11:29;;;;;;;15.85;9.48;;;;;;;10.83;90.07;100225.22;8348150;28;20041;-53
2022/11/14 11:15:14;;;;;;;13.50;8.25;;;;;;;12.11;85.28;100197.81;8342908;28;20042;-50
2022/11/14 11:19:34;;;;;;;11.98;6.97;;;;;;;13.18;77.67;100176.38;8349584;28;20499;-53
2022/11/14 11:23:56;;;;;;;9.93;6.72;;;;;;;13.31;76.09;100179.44;8349356;28;20103;-51
2022/11/14 11:28:19;;;;;;;12.23;6.97;;;;;;;14.15;74.96;100174.59;8348114;28;20045;-54
2022/11/14 11:32:40;;;;;;;12.90;8.20;;;;;;;15.02;70.90;100176.22;8346664;28;20410;-53
2022/11/14 11:37:22;;;;;;;14.23;8.80;;;;;;;14.67;71.67;100173.97;8351141;28;20560;-50
2022/11/14 11:41:44;;;;;;;16.95;9.75;;;;;;;14.51;72.44;100171.31;8351924;28;20060;-52
2022/11/14 11:46:14;;;;;;;19.45;11.25;;;;;;;14.33;73.31;100159.78;8346551;28;20445;-53
2022/11/14 11:50:35;;;;;;;14.95;9.40;;;;;;;14.28;72.19;100145.88;8345970;28;20041;-54
2022/11/14 11:55:09;;;;;;;28.08;9.50;;;;;;;12.68;77.45;100164.59;8345976;28;20048;-54
2022/11/14 11:59:44;;;;;;;21.50;11.68;;;;;;;11.45;85.10;100149.50;8347091;28;20041;-53
2022/11/14 12:04:04;;;;;;;22.17;12.05;;;;;;;11.24;86.31;100143.56;8347143;28;20417;-54
2022/11/14 12:13:14;;;;;;;24.35;12.00;;;;;;;12.94;80.20;100133.69;8383919;28;20700;-53
2022/11/14 12:18:14;;;;;;;22.48;12.27;;;;;;;13.78;76.49;100097.16;8373599;28;20098;-54
2022/11/14 12:23:12;;;;;;;26.52;12.95;;;;;;;13.59;77.55;100091.22;8350843;28;20410;-53
2022/11/14 12:27:59;;;;;;;27.38;12.65;;;;;;;13.73;76.39;100098.69;8347521;28;20061;-52
2022/11/14 12:32:30;;;;;;;30.20;14.10;;;;;;;12.40;81.13;100106.16;8347746;28;20045;-54
2022/11/14 12:36:51;;;;;;;34.17;15.25;;;;;;;11.13;87.62;100092.34;8347953;28;20064;-54
2022/11/14 12:41:22;;;;;;;33.75;16.15;;;;;;;10.60;91.89;100094.16;8328555;28;20446;-53
2022/11/14 12:45:55;;;;;;;32.47;15.52;;;;;;;10.47;93.30;100093.66;8376989;28;20457;-51
2022/11/14 12:50:40;;;;;;;36.90;17.70;;;;;;;10.19;96.26;100100.06;8331080;28;20037;-51
2022/11/14 12:55:00;;;;;;;38.22;18.30;;;;;;;10.11;97.11;100094.53;8339222;28;20063;-54
2022/11/14 12:59:28;;;;;;;43.60;17.73;;;;;;;10.09;97.25;100066.81;8364364;28;20065;-53
2022/11/14 13:04:17;;;;;;;39.05;18.50;;;;;;;10.14;97.80;100094.25;8363181;28;20061;-55
2022/11/14 13:09:17;;;;;;;42.65;18.42;;;;;;;10.15;97.51;100095.94;8336283;28;20519;-50
2022/11/14 13:28:15;;;;;;;30.73;15.00;;;;;;;10.11;97.98;100102.63;8398103;27;20609;-50
2022/11/14 13:37:25;;;;;;;39.05;18.38;;;;;;;10.02;98.03;100100.78;8328231;27;20430;-51
2022/11/14 13:42:12;;;;;;;37.65;18.27;;;;;;;9.95;98.40;100100.53;8341501;28;20603;-52
2022/11/14 13:47:03;;;;;;;39.75;17.13;;;;;;;9.95;98.39;100094.28;8292389;28;20054;-51
2022/11/14 13:51:25;;;;;;;38.60;18.05;;;;;;;9.85;98.41;100091.59;8309639;28;20042;-50
2022/11/14 13:56:05;;;;;;;43.22;18.77;;;;;;;9.87;98.73;100088.75;8314422;28;20046;-52
2022/11/14 14:00:40;;;;;;;35.72;17.20;;;;;;;9.84;98.53;100086.34;8305598;28;20050;-50
2022/11/14 14:05:41;;;;;;;41.08;17.92;;;;;;;9.83;98.45;100087.34;8315452;28;20030;-51
2022/11/14 14:10:31;;;;;;;47.47;17.80;;;;;;;9.87;98.76;100084.22;8318272;28;20069;-53
2022/11/14 14:15:19;;;;;;;37.47;18.35;;;;;;;9.87;98.34;100078.81;8304544;28;20080;-53
2022/11/14 14:19:55;;;;;;;32.28;16.23;;;;;;;9.85;98.35;100075.41;8315996;28;20360;-51
2022/11/14 14:24:34;;;;;;;32.42;15.98;;;;;;;9.88;98.78;100074.25;8309428;28;20087;-50
2022/11/14 14:29:10;;;;;;;33.10;17.25;;;;;;;9.89;98.84;100075.97;8329367;28;20963;-53
2022/11/14 14:33:40;;;;;;;33.78;16.60;;;;;;;9.83;99.08;100050.38;8310305;28;20045;-54
2022/11/14 14:38:01;;;;;;;35.67;16.63;;;;;;;9.82;99.22;100058.63;8301627;28;20042;-51
2022/11/14 14:42:23;;;;;;;39.30;17.30;;;;;;;9.79;100.00;100058.97;8305285;28;20069;-55
2022/11/14 14:46:43;;;;;;;37.55;18.17;;;;;;;9.85;99.52;100053.81;8286098;28;20033;-52
2022/11/14 14:51:06;;;;;;;42.47;19.38;;;;;;;9.85;99.91;100058.34;8294003;28;20124;-50
2022/11/14 14:55:31;;;;;;;36.75;18.23;;;;;;;9.86;98.80;100054.66;8284285;28;20050;-51
2022/11/14 15:00:01;;;;;;;39.20;18.38;;;;;;;9.89;99.08;100051.66;8289746;28;20085;-55
2022/11/14 15:04:25;;;;;;;36.65;18.58;;;;;;;9.85;99.30;100053.81;8283750;28;20030;-52
2022/11/14 15:08:46;;;;;;;34.38;18.17;;;;;;;9.75;100.00;100038.63;8281796;28;20080;-51
2022/11/14 15:13:10;;;;;;;37.88;19.02;;;;;;;9.78;99.79;100035.66;8308257;28;20040;-52
2022/11/14 15:17:31;;;;;;;36.90;20.10;;;;;;;9.76;100.00;100043.06;8293640;28;20414;-54
2022/11/14 15:26:29;;;;;;;38.08;18.83;;;;;;;9.73;100.00;100027.16;8317204;27;20397;-49
2022/11/14 15:30:59;;;;;;;35.22;18.27;;;;;;;9.72;100.00;100015.50;8311565;28;20080;-49
2022/11/14 15:39:32;;;;;;;32.67;18.48;;;;;;;9.71;100.00;100024.59;8330218;27;20358;-50
2022/11/14 15:43:54;;;;;;;35.95;17.92;;;;;;;9.69;100.00;100014.94;8324657;28;20060;-49
2022/11/14 15:48:18;;;;;;;39.33;19.83;;;;;;;9.66;100.00;100009.81;8314354;28;20034;-50
2022/11/14 15:52:47;;;;;;;31.77;17.55;;;;;;;9.62;100.00;100003.03;8299818;28;20041;-49
2022/11/14 15:57:12;;;;;;;36.47;19.30;;;;;;;9.65;100.00;100010.84;8310266;28;20053;-50
2022/11/14 16:01:33;;;;;;;38.65;18.65;;;;;;;9.63;100.00;100002.88;8339321;28;20125;-50
2022/11/14 16:05:53;;;;;;;36.47;17.90;;;;;;;9.66;100.00;99999.91;8309014;28;20095;-54
2022/11/14 16:10:18;;;;;;;38.83;18.98;;;;;;;9.66;100.00;100015.22;8340383;28;20036;-52
2022/11/14 16:14:39;;;;;;;33.38;16.65;;;;;;;9.71;100.00;100013.81;8335309;28;20042;-50
2022/11/14 16:19:00;;;;;;;44.38;19.65;;;;;;;9.66;100.00;100015.22;8291383;28;20096;-53
2022/11/14 16:23:21;;;;;;;33.20;18.63;;;;;;;9.66;100.00;100017.94;8309323;28;20423;-51
2022/11/14 16:27:41;;;;;;;34.40;18.67;;;;;;;9.67;100.00;100011.56;8324166;28;20414;-50
2022/11/14 16:32:02;;;;;;;33.97;18.58;;;;;;;9.65;100.00;100010.84;8304677;28;20100;-51
2022/11/14 16:36:23;;;;;;;36.80;19.33;;;;;;;9.63;100.00;100015.53;8308040;28;20447;-50
2022/11/14 16:40:43;;;;;;;43.58;19.70;;;;;;;9.61;100.00;100002.16;8326833;28;20037;-52
2022/11/14 16:45:04;;;;;;;38.20;20.05;;;;;;;9.62;100.00;100003.91;8352138;28;20108;-51
2022/11/14 16:49:25;;;;;;;32.08;18.02;;;;;;;9.65;100.00;100013.53;8326091;28;20079;-50
2022/11/14 16:53:45;;;;;;;32.33;18.83;;;;;;;9.60;100.00;100002.31;8330950;28;20115;-51
2022/11/14 16:58:06;;;;;;;33.35;17.75;;;;;;;9.59;100.00;100009.59;8321989;28;20412;-53
2022/11/14 17:02:26;;;;;;;36.67;18.52;;;;;;;9.57;100.00;100005.31;8320492;28;20042;-50
2022/11/14 17:06:46;;;;;;;34.15;18.02;;;;;;;9.48;100.00;100006.19;8302789;28;20047;-54
2022/11/14 17:11:08;;;;;;;36.40;18.05;;;;;;;9.41;100.00;100007.78;8284161;28;20538;-50
2022/11/14 17:15:30;;;;;;;27.50;16.45;;;;;;;9.34;100.00;100009.38;8305745;28;20053;-50
2022/11/14 17:19:51;;;;;;;35.05;17.02;;;;;;;9.26;100.00;99998.44;8300789;28;20473;-51
2022/11/14 17:24:12;;;;;;;29.60;16.15;;;;;;;9.16;100.00;100005.69;8302513;28;20041;-54
2022/11/14 17:28:32;;;;;;;28.33;15.35;;;;;;;9.09;100.00;100009.97;8313520;28;20380;-52
2022/11/14 17:32:54;;;;;;;24.60;13.10;;;;;;;9.04;100.00;99998.75;8319762;28;20396;-53
2022/11/14 17:37:15;;;;;;;18.35;10.90;;;;;;;9.03;100.00;99999.75;8338757;28;20068;-51
2022/11/14 17:41:35;;;;;;;16.92;10.40;;;;;;;9.04;100.00;100006.84;8330867;28;20115;-52
2022/11/14 17:45:56;;;;;;;15.00;8.80;;;;;;;9.10;98.96;100000.88;8299847;28;20573;-50
2022/11/14 17:50:17;;;;;;;14.50;8.32;;;;;;;9.11;97.87;100007.97;8289728;28;20034;-50
2022/11/14 17:54:37;;;;;;;15.00;9.15;;;;;;;9.08;97.71;100019.03;8308713;28;20038;-50
2022/11/14 17:58:58;;;;;;;14.32;9.00;;;;;;;9.02;98.34;100014.22;8282403;28;20496;-52
2022/11/14 18:03:19;;;;;;;15.80;9.80;;;;;;;9.02;98.48;100027.69;8287979;28;20042;-50
2022/11/14 18:07:40;;;;;;;18.73;9.93;;;;;;;9.03;98.39;100024.03;8315712;28;20037;-51
2022/11/14 18:12:00;;;;;;;14.75;9.18;;;;;;;9.06;98.91;100021.88;8306094;28;20030;-51
2022/11/14 18:16:23;;;;;;;13.27;8.05;;;;;;;9.06;98.83;100015.66;8317307;28;20041;-54
2022/11/14 18:20:43;;;;;;;17.30;9.10;;;;;;;8.99;99.49;100018.06;8265754;28;20038;-54
2022/11/14 18:25:04;;;;;;;14.93;8.80;;;;;;;8.94;100.00;100016.78;8349362;28;20041;-50
2022/11/14 18:29:27;;;;;;;17.15;9.68;;;;;;;8.88;100.00;100011.97;8336305;28;20048;-50
2022/11/14 18:33:47;;;;;;;13.77;8.45;;;;;;;8.86;100.00;100003.16;8320888;28;20049;-51
2022/11/14 18:38:08;;;;;;;16.63;9.75;;;;;;;8.81;100.00;100005.47;8321718;28;20049;-51
2022/11/14 18:42:28;;;;;;;15.93;9.75;;;;;;;8.81;100.00;100000.06;8324264;28;20075;-51
2022/11/14 18:46:49;;;;;;;17.45;9.73;;;;;;;8.79;100.00;100002.91;8323299;28;20046;-53
2022/11/14 18:51:13;;;;;;;17.33;9.60;;;;;;;8.79;100.00;99991.25;8305794;28;20042;-51
2022/11/14 18:55:39;;;;;;;16.80;10.43;;;;;;;8.77;100.00;99987.84;8314919;28;20044;-53
2022/11/14 18:59:59;;;;;;;21.65;11.13;;;;;;;8.77;100.00;99995.94;8331313;28;20048;-51
2022/11/14 19:04:21;;;;;;;20.13;11.40;;;;;;;8.88;100.00;100001.19;8322394;28;20036;-50
2022/11/14 19:08:41;;;;;;;22.63;12.57;;;;;;;8.86;100.00;99993.25;8306260;28;20095;-50
2022/11/14 19:13:02;;;;;;;23.13;12.73;;;;;;;8.84;100.00;99999.78;8310428;28;20048;-50
2022/11/14 19:17:22;;;;;;;21.55;12.80;;;;;;;8.82;100.00;99994.53;8322126;28;20060;-52
2022/11/14 19:21:43;;;;;;;25.48;13.05;;;;;;;8.82;100.00;99985.59;8321169;28;20041;-52
2022/11/14 19:26:03;;;;;;;24.73;13.32;;;;;;;8.78;100.00;99986.88;8319115;28;20033;-51
2022/11/14 19:30:24;;;;;;;26.27;14.38;;;;;;;8.78;100.00;99984.19;8319740;28;20105;-51
2022/11/14 19:34:44;;;;;;;26.65;14.00;;;;;;;8.80;100.00;99990.25;8319814;28;20091;-50
2022/11/14 19:39:05;;;;;;;28.25;17.65;;;;;;;8.80;100.00;99992.94;8320979;28;20049;-50
2022/11/14 19:43:26;;;;;;;31.30;16.85;;;;;;;8.87;100.00;99988.69;8321050;28;20137;-51
2022/11/14 19:47:47;;;;;;;34.90;17.73;;;;;;;8.87;100.00;99986.84;8320535;28;20077;-51
2022/11/14 19:52:07;;;;;;;30.30;15.35;;;;;;;8.95;100.00;99991.53;8254866;28;20443;-50
2022/11/14 19:56:28;;;;;;;29.63;16.05;;;;;;;9.02;100.00;99981.88;8285786;28;20045;-53
2022/11/14 20:00:48;;;;;;;27.98;15.43;;;;;;;9.11;100.00;99994.47;8275990;28;20042;-53
2022/11/14 20:05:08;;;;;;;26.27;16.52;;;;;;;9.21;100.00;99998.03;8280697;28;20042;-51
2022/11/14 20:09:29;;;;;;;29.08;15.55;;;;;;;9.20;100.00;100001.72;8269725;28;20150;-51
2022/11/14 20:13:49;;;;;;;32.78;16.80;;;;;;;9.23;100.00;100007.69;8296792;28;20096;-50
2022/11/14 20:18:10;;;;;;;28.13;15.15;;;;;;;9.31;100.00;99993.47;8284182;28;20771;-52
2022/11/14 20:22:30;;;;;;;27.75;15.43;;;;;;;9.32;100.00;99987.94;8283655;28;20463;-51
2022/11/14 20:26:51;;;;;;;25.50;15.05;;;;;;;9.43;100.00;99995.00;8288341;28;20682;-50
2022/11/14 20:31:15;;;;;;;25.70;15.40;;;;;;;9.42;100.00;99982.50;8299739;28;20508;-51
2022/11/14 20:35:37;;;;;;;22.05;13.40;;;;;;;9.45;100.00;99976.81;8287169;28;20374;-52
2022/11/14 20:39:57;;;;;;;27.13;14.70;;;;;;;9.49;99.98;99978.22;8321013;28;20045;-52
2022/11/14 20:44:18;;;;;;;23.00;13.68;;;;;;;9.50;100.00;99977.22;8317064;28;20353;-51
2022/11/14 20:48:39;;;;;;;26.23;14.30;;;;;;;9.49;100.00;99975.53;8322342;28;20515;-50